Hlavní strana
METAR-TAF:

METAR-TAF

Letiště :

Luleå, Švédsko

zeměpisná šířka: 65-33N, zeměpisná délka: 022-08E, výška: 17 m

Aktuální stav počasí

Zpráva byla vytvořena před 40 minutami, v 04:20 UTC
Západoseverozápadní vítr 4 kt
Teplota 7°C
Vlhkost vzduchu 81%
Tlak 1013 hPa
Viditelnost 10 km a více
Žádná oblačnost pod 1500 m, nevyskytují se cumulonimby.

METAR: ESPA 220420Z 29004KT CAVOK 07/04 Q1013

Čas: 07:00 (05:00 UTC)

Předpověď počasí

Zpráva byla vytvořena před 50 minutami, v 04:10 UTC
Předpověď platná od 22 v 04 UTC do 22 v 12 UTC
Západoseverozápadní vítr 4 kt
Viditelnost 10 km a více
Žádná oblačnost pod 1500 m, nevyskytují se cumulonimby.
Změna
od 22 v 08 UTC do 22 v 10 UTC
Jižní vítr 12 kt

TAF: ESPA 220410Z 2204/2212 29004KT CAVOK BECMG 2208/2210 18012KT RMK MIL

Stav a předpovědi počasí z více než 4 000 letišť (zprávy METAR a TAF).

Červené a žluté tečky na mapě představují dostupné meteorologické stanice.

Když kurzor umístíte na tečku, zobrazí se název stanice.

Pak kliknutím zobrazíte stav a předpověď počasí.

Chcete-li změnit mapu, kliknutím na zelené tlačítko se znaménkem +mapu přiblížíte, kliknutím na zelené tlačítko se znaménkem – mapu oddálíte a kliknutím na zelené šipky přejdete na sousední mapy.


METAR-TAF: